Armindo Jose — CUCT6 — position and weather

sailwx.info

Track history (hours):
 
Tides and Currents Weather Stations Pressure Air Temp Water Temp Dewpoint Dewpoint Depression Visibility Wind Speed Wind Dir Waves Ship Positions

Armindo Jose

Last reported at 2018-Feb-23 03:00 UTC. Time now 2018-Feb-23 03:06 UTC.
Position N 38°24' W 009°13'.

MMSI: 204254000.

Date/timePositionNaut miles runAvg speedWind from/ knotsBaromVisibWave heightAir tempDewpointWater temp
2018-Feb-23 03:00N 38°24' W 009°13'4 7.2
2018-Feb-23 02:30N 38°25' W 009°08'2 0.1
2018-Feb-22 15:41N 38°26' W 009°07'0 0.7
2018-Feb-22 15:27N 38°26' W 009°07'1 3.3
2018-Feb-22 15:00N 38°26' W 009°08'4 8.1
2018-Feb-22 14:30N 38°25' W 009°13'4 7.9
2018-Feb-22 13:57N 38°28' W 009°16'1 1.9
2018-Feb-22 13:15N 38°30' W 009°17'0 1.0
2018-Feb-22 12:54N 38°30' W 009°17'1 1.1
2018-Feb-22 12:13N 38°30' W 009°18'0 0.2
2018-Feb-22 11:57N 38°30' W 009°18'1 1.1
2018-Feb-22 11:10N 38°29' W 009°19'1 1.2
2018-Feb-22 10:42N 38°29' W 009°20'0 1.4
2018-Feb-22 10:23N 38°28' W 009°19'0 0.8
2018-Feb-22 09:56N 38°28' W 009°19'3 0.6
2018-Feb-22 03:58N 38°27' W 009°23'4 7.8
2018-Feb-22 03:30N 38°28' W 009°19'2 4.3
2018-Feb-22 03:00N 38°30' W 009°17'3 5.7
2018-Feb-22 02:27N 38°27' W 009°15'3 7.1
2018-Feb-22 02:00N 38°24' W 009°13'4 7.4
2018-Feb-22 01:30N 38°25' W 009°08'1 0.0
2018-Feb-20 15:05N 38°26' W 009°07'0 0.1
2018-Feb-20 14:58N 38°26' W 009°07'1 1.2
2018-Feb-20 14:30N 38°26' W 009°07'4 8.3
2018-Feb-20 14:00N 38°25' W 009°12'4 7.7
2018-Feb-20 13:30N 38°27' W 009°16'3 4.9
2018-Feb-20 12:58N 38°30' W 009°17'1 0.7
2018-Feb-20 11:35N 38°30' W 009°18'0 0.7
2018-Feb-20 11:21N 38°30' W 009°18'0 0.7
2018-Feb-20 10:58N 38°30' W 009°19'0 0.8
2018-Feb-20 10:26N 38°29' W 009°19'1 1.0
2018-Feb-20 09:56N 38°29' W 009°19'1 1.1
2018-Feb-20 09:28N 38°29' W 009°20'0 0.7
2018-Feb-20 08:53N 38°28' W 009°20'1 1.9
2018-Feb-20 08:30N 38°28' W 009°21'2 0.5
2018-Feb-20 04:09N 38°27' W 009°23'0 0.1
2018-Feb-20 03:59N 38°27' W 009°23'6 5.5
2018-Feb-20 02:57N 38°29' W 009°16'3 7.8
2018-Feb-20 02:30N 38°26' W 009°15'3 6.8
2018-Feb-20 02:00N 38°24' W 009°11'4 7.7
2018-Feb-20 01:30N 38°26' W 009°07'0 0.0
2018-Feb-19 14:52N 38°26' W 009°07'0 0.9
2018-Feb-19 14:30N 38°26' W 009°07'4 8.0
2018-Feb-19 14:00N 38°24' W 009°12'4 7.3
2018-Feb-19 13:30N 38°27' W 009°15'3 6.0
2018-Feb-19 12:59N 38°30' W 009°17'0 0.8
2018-Feb-19 12:26N 38°30' W 009°17'1 0.9
2018-Feb-19 11:44N 38°30' W 009°18'0 0.6
2018-Feb-19 11:18N 38°30' W 009°18'0 0.8
2018-Feb-19 10:59N 38°29' W 009°19'1 1.0
2018-Feb-19 10:23N 38°29' W 009°19'1 1.1
2018-Feb-19 09:54N 38°29' W 009°20'1 1.2
2018-Feb-19 09:27N 38°28' W 009°19'1 1.2
2018-Feb-19 09:01N 38°28' W 009°20'2 0.4
2018-Feb-19 03:47N 38°27' W 009°23'5 5.7
2018-Feb-19 02:50N 38°30' W 009°17'3 7.8
2018-Feb-19 02:31N 38°27' W 009°15'4 7.0
2018-Feb-19 02:01N 38°24' W 009°13'4 7.4
2018-Feb-19 01:30N 38°25' W 009°08'2 0.1
2018-Feb-17 17:29N 38°26' W 009°07'1 2.4
2018-Feb-17 17:00N 38°26' W 009°08'4 7.8
2018-Feb-17 16:30N 38°25' W 009°13'4 7.5
2018-Feb-17 15:58N 38°28' W 009°16'2 2.3
2018-Feb-17 15:00N 38°30' W 009°17'0 0.7
2018-Feb-17 14:25N 38°30' W 009°18'0 0.7
2018-Feb-17 13:56N 38°30' W 009°18'1 0.4
2018-Feb-17 12:45N 38°29' W 009°19'0 0.6
2018-Feb-17 12:27N 38°29' W 009°19'1 0.6
2018-Feb-17 10:53N 38°28' W 009°19'0 0.6
2018-Feb-17 10:19N 38°28' W 009°19'0 1.1
2018-Feb-17 09:59N 38°28' W 009°20'3 0.5
2018-Feb-17 04:49N 38°30' W 009°22'5 4.5
2018-Feb-17 03:36N 38°28' W 009°16'1 7.9
2018-Feb-17 03:31N 38°27' W 009°15'4 7.2
2018-Feb-17 03:01N 38°24' W 009°13'4 7.3
2018-Feb-17 02:30N 38°25' W 009°08'2 0.2
2018-Feb-16 17:43N 38°26' W 009°07'0 0.5
2018-Feb-16 17:26N 38°26' W 009°07'3 5.9
2018-Feb-16 16:55N 38°25' W 009°10'4 6.6
2018-Feb-16 16:22N 38°26' W 009°15'3 8.0
2018-Feb-16 16:00N 38°29' W 009°16'1 1.9
2018-Feb-16 15:22N 38°30' W 009°17'0 0.5
2018-Feb-16 14:58N 38°30' W 009°17'0 0.7
2018-Feb-16 14:28N 38°30' W 009°18'0 0.7
2018-Feb-16 13:58N 38°30' W 009°18'0 0.5
2018-Feb-16 13:13N 38°30' W 009°19'0 0.6
2018-Feb-16 12:53N 38°29' W 009°19'0 0.8
2018-Feb-16 12:16N 38°29' W 009°19'0 0.3
2018-Feb-16 12:00N 38°29' W 009°19'1 0.6
2018-Feb-16 10:53N 38°29' W 009°20'0 0.6
2018-Feb-16 10:15N 38°28' W 009°19'0 0.4
2018-Feb-16 10:00N 38°28' W 009°19'0 0.5
2018-Feb-16 09:27N 38°28' W 009°20'3 0.4
2018-Feb-16 03:01N 38°29' W 009°16'0 7.8
2018-Feb-16 02:59N 38°29' W 009°16'4 7.7
2018-Feb-16 02:27N 38°25' W 009°14'3 6.5
2018-Feb-16 02:00N 38°24' W 009°11'4 7.4
2018-Feb-16 01:30N 38°26' W 009°07'0 0.0
2018-Feb-14 16:25N 38°26' W 009°07'0 0.9
2018-Feb-14 16:00N 38°26' W 009°07'10 5.6
2018-Feb-14 14:15N 38°30' W 009°18'0 0.6
2018-Feb-14 13:50N 38°30' W 009°19'0 0.7
2018-Feb-14 13:25N 38°29' W 009°19'1 0.8
2018-Feb-14 12:44N 38°29' W 009°20'0 0.8
2018-Feb-14 12:30N 38°29' W 009°20'1 0.7
2018-Feb-14 11:16N 38°28' W 009°19'1 2.0
2018-Feb-14 11:00N 38°28' W 009°20'4 0.7
2018-Feb-14 04:31N 38°28' W 009°25'0 7.9
2018-Feb-14 04:30N 38°28' W 009°25'6 3.6
2018-Feb-14 02:55N 38°30' W 009°18'3 7.0
2018-Feb-14 02:30N 38°27' W 009°16'4 7.3
2018-Feb-14 01:59N 38°24' W 009°13'  
Track history (hours):
 
Tides and Currents Weather Stations Pressure Air Temp Water Temp Dewpoint Dewpoint Depression Visibility Wind Speed Wind Dir Waves Ship Positions

Armindo Jose

Last reported at 2018-Feb-23 03:00 UTC. Time now 2018-Feb-23 03:06 UTC.
Position N 38°24' W 009°13'.

MMSI: 204254000.

Date/timePositionNaut miles runAvg speedWind from/ knotsBaromVisibWave heightAir tempDewpointWater temp
2018-Feb-23 03:00N 38°24' W 009°13'4 7.2
2018-Feb-23 02:30N 38°25' W 009°08'2 0.1
2018-Feb-22 15:41N 38°26' W 009°07'0 0.7
2018-Feb-22 15:27N 38°26' W 009°07'1 3.3
2018-Feb-22 15:00N 38°26' W 009°08'4 8.1
2018-Feb-22 14:30N 38°25' W 009°13'4 7.9
2018-Feb-22 13:57N 38°28' W 009°16'1 1.9
2018-Feb-22 13:15N 38°30' W 009°17'0 1.0
2018-Feb-22 12:54N 38°30' W 009°17'1 1.1
2018-Feb-22 12:13N 38°30' W 009°18'0 0.2
2018-Feb-22 11:57N 38°30' W 009°18'1 1.1
2018-Feb-22 11:10N 38°29' W 009°19'1 1.2
2018-Feb-22 10:42N 38°29' W 009°20'0 1.4
2018-Feb-22 10:23N 38°28' W 009°19'0 0.8
2018-Feb-22 09:56N 38°28' W 009°19'3 0.6
2018-Feb-22 03:58N 38°27' W 009°23'4 7.8
2018-Feb-22 03:30N 38°28' W 009°19'2 4.3
2018-Feb-22 03:00N 38°30' W 009°17'3 5.7
2018-Feb-22 02:27N 38°27' W 009°15'3 7.1
2018-Feb-22 02:00N 38°24' W 009°13'4 7.4
2018-Feb-22 01:30N 38°25' W 009°08'1 0.0
2018-Feb-20 15:05N 38°26' W 009°07'0 0.1
2018-Feb-20 14:58N 38°26' W 009°07'1 1.2
2018-Feb-20 14:30N 38°26' W 009°07'4 8.3
2018-Feb-20 14:00N 38°25' W 009°12'4 7.7
2018-Feb-20 13:30N 38°27' W 009°16'3 4.9
2018-Feb-20 12:58N 38°30' W 009°17'1 0.7
2018-Feb-20 11:35N 38°30' W 009°18'0 0.7
2018-Feb-20 11:21N 38°30' W 009°18'0 0.7
2018-Feb-20 10:58N 38°30' W 009°19'0 0.8
2018-Feb-20 10:26N 38°29' W 009°19'1 1.0
2018-Feb-20 09:56N 38°29' W 009°19'1 1.1
2018-Feb-20 09:28N 38°29' W 009°20'0 0.7
2018-Feb-20 08:53N 38°28' W 009°20'1 1.9
2018-Feb-20 08:30N 38°28' W 009°21'2 0.5
2018-Feb-20 04:09N 38°27' W 009°23'0 0.1
2018-Feb-20 03:59N 38°27' W 009°23'6 5.5
2018-Feb-20 02:57N 38°29' W 009°16'3 7.8
2018-Feb-20 02:30N 38°26' W 009°15'3 6.8
2018-Feb-20 02:00N 38°24' W 009°11'4 7.7
2018-Feb-20 01:30N 38°26' W 009°07'0 0.0
2018-Feb-19 14:52N 38°26' W 009°07'0 0.9
2018-Feb-19 14:30N 38°26' W 009°07'4 8.0
2018-Feb-19 14:00N 38°24' W 009°12'4 7.3
2018-Feb-19 13:30N 38°27' W 009°15'3 6.0
2018-Feb-19 12:59N 38°30' W 009°17'0 0.8
2018-Feb-19 12:26N 38°30' W 009°17'1 0.9
2018-Feb-19 11:44N 38°30' W 009°18'0 0.6
2018-Feb-19 11:18N 38°30' W 009°18'0 0.8
2018-Feb-19 10:59N 38°29' W 009°19'1 1.0
2018-Feb-19 10:23N 38°29' W 009°19'1 1.1
2018-Feb-19 09:54N 38°29' W 009°20'1 1.2
2018-Feb-19 09:27N 38°28' W 009°19'1 1.2
2018-Feb-19 09:01N 38°28' W 009°20'2 0.4
2018-Feb-19 03:47N 38°27' W 009°23'5 5.7
2018-Feb-19 02:50N 38°30' W 009°17'3 7.8
2018-Feb-19 02:31N 38°27' W 009°15'4 7.0
2018-Feb-19 02:01N 38°24' W 009°13'4 7.4
2018-Feb-19 01:30N 38°25' W 009°08'2 0.1
2018-Feb-17 17:29N 38°26' W 009°07'1 2.4
2018-Feb-17 17:00N 38°26' W 009°08'4 7.8
2018-Feb-17 16:30N 38°25' W 009°13'4 7.5
2018-Feb-17 15:58N 38°28' W 009°16'2 2.3
2018-Feb-17 15:00N 38°30' W 009°17'0 0.7
2018-Feb-17 14:25N 38°30' W 009°18'0 0.7
2018-Feb-17 13:56N 38°30' W 009°18'1 0.4
2018-Feb-17 12:45N 38°29' W 009°19'0 0.6
2018-Feb-17 12:27N 38°29' W 009°19'1 0.6
2018-Feb-17 10:53N 38°28' W 009°19'0 0.6
2018-Feb-17 10:19N 38°28' W 009°19'0 1.1
2018-Feb-17 09:59N 38°28' W 009°20'3 0.5
2018-Feb-17 04:49N 38°30' W 009°22'5 4.5
2018-Feb-17 03:36N 38°28' W 009°16'1 7.9
2018-Feb-17 03:31N 38°27' W 009°15'4 7.2
2018-Feb-17 03:01N 38°24' W 009°13'4 7.3
2018-Feb-17 02:30N 38°25' W 009°08'2 0.2
2018-Feb-16 17:43N 38°26' W 009°07'0 0.5
2018-Feb-16 17:26N 38°26' W 009°07'3 5.9
2018-Feb-16 16:55N 38°25' W 009°10'4 6.6
2018-Feb-16 16:22N 38°26' W 009°15'3 8.0
2018-Feb-16 16:00N 38°29' W 009°16'1 1.9
2018-Feb-16 15:22N 38°30' W 009°17'0 0.5
2018-Feb-16 14:58N 38°30' W 009°17'0 0.7
2018-Feb-16 14:28N 38°30' W 009°18'0 0.7
2018-Feb-16 13:58N 38°30' W 009°18'0 0.5
2018-Feb-16 13:13N 38°30' W 009°19'0 0.6
2018-Feb-16 12:53N 38°29' W 009°19'0 0.8
2018-Feb-16 12:16N 38°29' W 009°19'0 0.3
2018-Feb-16 12:00N 38°29' W 009°19'1 0.6
2018-Feb-16 10:53N 38°29' W 009°20'0 0.6
2018-Feb-16 10:15N 38°28' W 009°19'0 0.4
2018-Feb-16 10:00N 38°28' W 009°19'0 0.5
2018-Feb-16 09:27N 38°28' W 009°20'3 0.4
2018-Feb-16 03:01N 38°29' W 009°16'0 7.8
2018-Feb-16 02:59N 38°29' W 009°16'4 7.7
2018-Feb-16 02:27N 38°25' W 009°14'3 6.5
2018-Feb-16 02:00N 38°24' W 009°11'4 7.4
2018-Feb-16 01:30N 38°26' W 009°07'0 0.0
2018-Feb-14 16:25N 38°26' W 009°07'0 0.9
2018-Feb-14 16:00N 38°26' W 009°07'10 5.6
2018-Feb-14 14:15N 38°30' W 009°18'0 0.6
2018-Feb-14 13:50N 38°30' W 009°19'0 0.7
2018-Feb-14 13:25N 38°29' W 009°19'1 0.8
2018-Feb-14 12:44N 38°29' W 009°20'0 0.8
2018-Feb-14 12:30N 38°29' W 009°20'1 0.7
2018-Feb-14 11:16N 38°28' W 009°19'1 2.0
2018-Feb-14 11:00N 38°28' W 009°20'4 0.7
2018-Feb-14 04:31N 38°28' W 009°25'0 7.9
2018-Feb-14 04:30N 38°28' W 009°25'6 3.6
2018-Feb-14 02:55N 38°30' W 009°18'3 7.0
2018-Feb-14 02:30N 38°27' W 009°16'4 7.3
2018-Feb-14 01:59N 38°24' W 009°13'  

Dump ship's entire track history